createdAt,value
2018-08-30T00:01:07.999Z,11.74
2018-08-30T00:03:35.691Z,11.69
2018-08-30T00:06:03.432Z,11.63
2018-08-30T00:08:31.232Z,11.53
2018-08-30T00:10:58.920Z,11.46
2018-08-30T00:13:26.625Z,11.38
2018-08-30T00:15:54.328Z,11.28
2018-08-30T00:18:22.012Z,11.19
2018-08-30T00:20:49.699Z,11.12
2018-08-30T00:23:17.559Z,11.07
2018-08-30T00:25:45.264Z,11.03
2018-08-30T00:28:12.945Z,10.97
2018-08-30T00:30:40.668Z,10.87
2018-08-30T00:33:08.383Z,10.79
2018-08-30T00:35:36.096Z,10.74
2018-08-30T00:38:03.874Z,10.69
2018-08-30T00:40:31.589Z,10.66
2018-08-30T00:42:59.288Z,10.61
2018-08-30T00:45:27.169Z,10.53
2018-08-30T00:47:54.859Z,10.47
2018-08-30T00:50:22.571Z,10.38
2018-08-30T00:52:50.282Z,10.31
2018-08-30T00:55:18.052Z,10.25
2018-08-30T00:57:45.707Z,10.21
2018-08-30T01:00:13.437Z,10.18
2018-08-30T01:02:41.123Z,10.13
2018-08-30T01:05:08.864Z,10.12
2018-08-30T01:07:36.976Z,10.10
2018-08-30T01:10:05.056Z,10.10
2018-08-30T01:12:32.872Z,10.11
2018-08-30T01:15:00.544Z,10.14
2018-08-30T01:17:28.215Z,10.15
2018-08-30T01:19:55.937Z,10.14
2018-08-30T01:22:23.755Z,10.13
2018-08-30T01:24:51.452Z,10.12
2018-08-30T01:27:19.132Z,10.10
2018-08-30T01:29:46.831Z,10.06
2018-08-30T01:32:14.618Z,10.04
2018-08-30T01:34:42.367Z,10.02
2018-08-30T01:37:10.165Z,10.00
2018-08-30T01:39:37.868Z,9.99
2018-08-30T01:42:05.600Z,9.98
2018-08-30T01:44:33.307Z,9.96
2018-08-30T01:47:01.008Z,10.00
2018-08-30T01:49:28.692Z,10.01
2018-08-30T01:51:56.391Z,9.99
2018-08-30T01:54:24.120Z,9.95
2018-08-30T01:56:51.780Z,9.93
2018-08-30T01:59:19.448Z,9.93
2018-08-30T02:01:47.176Z,9.92
2018-08-30T02:04:14.927Z,9.85
2018-08-30T02:06:42.592Z,9.78
2018-08-30T02:09:10.286Z,9.71
2018-08-30T02:11:37.987Z,9.62
2018-08-30T02:14:05.677Z,9.55
2018-08-30T02:16:33.387Z,9.55
2018-08-30T02:19:01.083Z,9.54
2018-08-30T02:21:28.767Z,9.55
2018-08-30T02:23:56.476Z,9.49
2018-08-30T02:26:24.171Z,9.12
2018-08-30T02:28:51.868Z,9.43
2018-08-30T02:31:19.576Z,9.43
2018-08-30T02:33:47.239Z,9.39
2018-08-30T02:36:14.998Z,9.34
2018-08-30T02:38:42.832Z,9.34
2018-08-30T02:41:10.508Z,9.34
2018-08-30T02:43:38.208Z,9.30
2018-08-30T02:46:06.024Z,9.26
2018-08-30T02:48:33.727Z,9.25
2018-08-30T02:51:01.407Z,9.24
2018-08-30T02:53:29.108Z,9.25
2018-08-30T02:55:56.816Z,9.25
2018-08-30T02:58:24.497Z,9.25
2018-08-30T03:00:52.208Z,9.22
2018-08-30T03:03:19.888Z,9.16
2018-08-30T03:05:47.635Z,9.12
2018-08-30T03:08:15.396Z,9.06
2018-08-30T03:10:43.136Z,9.03
2018-08-30T03:13:10.920Z,8.99
2018-08-30T03:15:38.617Z,8.96
2018-08-30T03:18:06.313Z,8.95
2018-08-30T03:20:33.996Z,8.96
2018-08-30T03:23:01.684Z,8.95
2018-08-30T03:25:29.388Z,8.99
2018-08-30T03:27:57.079Z,8.99
2018-08-30T03:30:25.046Z,8.95
2018-08-30T03:32:52.671Z,8.92
2018-08-30T03:35:20.377Z,8.89
2018-08-30T03:37:48.263Z,8.83
2018-08-30T03:40:15.974Z,8.80
2018-08-30T03:42:43.680Z,8.78
2018-08-30T03:45:11.460Z,8.74
2018-08-30T03:47:39.120Z,8.69
2018-08-30T03:50:06.852Z,8.67
2018-08-30T03:52:34.702Z,8.65
2018-08-30T03:55:02.826Z,8.60
2018-08-30T03:57:30.474Z,8.62
2018-08-30T03:59:58.198Z,8.65
2018-08-30T04:02:25.880Z,8.65
2018-08-30T04:04:53.624Z,8.66
2018-08-30T04:07:21.322Z,8.67
2018-08-30T04:09:49.018Z,8.68
2018-08-30T04:12:17.011Z,8.69
2018-08-30T04:14:44.692Z,8.66
2018-08-30T04:17:12.467Z,8.64
2018-08-30T04:19:40.215Z,8.63
2018-08-30T04:22:07.888Z,8.65
2018-08-30T04:24:35.612Z,8.67
2018-08-30T04:27:03.349Z,8.71
2018-08-30T04:29:31.036Z,8.75
2018-08-30T04:31:59.627Z,8.82
2018-08-30T04:34:27.312Z,8.93
2018-08-30T04:36:54.992Z,8.96
2018-08-30T04:39:22.696Z,9.01
2018-08-30T04:41:50.394Z,9.05
2018-08-30T04:44:18.124Z,9.14
2018-08-30T04:46:45.860Z,9.25
2018-08-30T04:49:13.558Z,9.44
2018-08-30T04:51:41.760Z,9.66
2018-08-30T04:54:09.480Z,9.90
2018-08-30T04:56:37.162Z,10.08
2018-08-30T04:59:04.995Z,10.32
2018-08-30T05:01:32.751Z,10.60
2018-08-30T05:04:00.504Z,10.94
2018-08-30T05:06:28.172Z,11.30
2018-08-30T05:08:55.896Z,11.64
2018-08-30T05:11:23.625Z,11.91
2018-08-30T05:13:51.316Z,12.17
2018-08-30T05:16:19.025Z,12.41
2018-08-30T05:18:46.713Z,12.75
2018-08-30T05:21:14.395Z,13.01
2018-08-30T05:23:42.103Z,13.33
2018-08-30T05:26:09.788Z,13.70
2018-08-30T05:28:37.452Z,13.90
2018-08-30T05:31:05.384Z,14.09
2018-08-30T05:33:33.091Z,14.33
2018-08-30T05:36:00.805Z,14.63
2018-08-30T05:38:28.534Z,14.92
2018-08-30T05:40:56.231Z,15.11
2018-08-30T05:43:23.905Z,15.28
2018-08-30T05:45:51.647Z,15.52
2018-08-30T05:48:19.390Z,15.75
2018-08-30T05:50:47.096Z,15.98
2018-08-30T05:53:14.813Z,16.19
2018-08-30T05:55:42.548Z,16.53
2018-08-30T05:58:10.298Z,16.84
2018-08-30T06:00:38.024Z,17.14
2018-08-30T06:03:05.773Z,17.28
2018-08-30T06:05:33.496Z,17.57
2018-08-30T06:08:01.193Z,17.94
2018-08-30T06:10:28.992Z,18.21
2018-08-30T06:12:56.738Z,18.54
2018-08-30T06:15:24.507Z,18.68
2018-08-30T06:17:52.235Z,18.97
2018-08-30T06:20:19.997Z,19.25
2018-08-30T06:22:47.744Z,19.67
2018-08-30T06:25:15.536Z,20.00
2018-08-30T06:27:43.259Z,20.31
2018-08-30T06:53:34.111Z,21.30
2018-08-30T06:56:01.848Z,21.23
2018-08-30T06:58:29.612Z,21.45
2018-08-30T07:00:57.384Z,21.83
2018-08-30T07:03:25.130Z,22.00
2018-08-30T07:05:52.896Z,21.67
2018-08-30T07:08:20.648Z,21.82
2018-08-30T07:10:48.391Z,21.91
2018-08-30T07:13:16.207Z,22.04
2018-08-30T07:15:44.021Z,22.08
2018-08-30T07:18:11.771Z,22.16
2018-08-30T07:20:39.547Z,22.24
2018-08-30T07:23:07.313Z,22.44
2018-08-30T07:25:35.095Z,22.39
2018-08-30T07:28:02.816Z,22.76
2018-08-30T07:30:30.547Z,22.80
2018-08-30T07:32:58.352Z,22.74
2018-08-30T07:35:26.105Z,22.89
2018-08-30T07:37:53.823Z,22.88
2018-08-30T07:40:21.581Z,22.67
2018-08-30T07:42:49.362Z,22.58
2018-08-30T07:45:17.168Z,23.00
2018-08-30T07:47:44.913Z,23.18
2018-08-30T07:50:12.663Z,23.13
2018-08-30T07:52:40.411Z,23.42
2018-08-30T07:55:08.169Z,23.39
2018-08-30T07:57:35.995Z,23.47
2018-08-30T08:00:04.728Z,23.37
2018-08-30T08:02:32.490Z,23.30
2018-08-30T08:05:00.258Z,23.53
2018-08-30T08:07:28.069Z,23.21
2018-08-30T08:09:55.816Z,23.09
2018-08-30T08:12:23.507Z,23.04
2018-08-30T08:14:51.216Z,23.06
2018-08-30T08:17:18.945Z,23.03
2018-08-30T08:19:46.662Z,22.61
2018-08-30T08:22:14.391Z,22.53
2018-08-30T08:24:42.179Z,22.89
2018-08-30T08:27:09.903Z,22.94
2018-08-30T08:29:37.644Z,22.85
2018-08-30T08:32:05.447Z,23.15
2018-08-30T08:34:33.152Z,23.66
2018-08-30T08:37:00.879Z,23.70
2018-08-30T08:39:28.728Z,23.62
2018-08-30T08:41:56.529Z,23.51
2018-08-30T08:44:24.489Z,23.35
2018-08-30T08:46:52.298Z,23.39
2018-08-30T08:49:20.102Z,23.25
2018-08-30T08:51:47.880Z,23.46
2018-08-30T08:54:15.675Z,23.53
2018-08-30T08:56:43.441Z,23.87
2018-08-30T08:59:11.209Z,24.14
2018-08-30T09:01:39.164Z,24.14
2018-08-30T09:04:06.944Z,23.73
2018-08-30T09:06:34.735Z,23.57
2018-08-30T09:09:02.675Z,23.78
2018-08-30T09:11:30.439Z,23.81
2018-08-30T09:13:58.216Z,23.50
2018-08-30T09:16:25.975Z,23.34
2018-08-30T09:18:53.845Z,23.55
2018-08-30T09:21:21.609Z,23.73
2018-08-30T09:23:49.417Z,23.87
2018-08-30T09:26:17.155Z,23.91
2018-08-30T09:28:44.950Z,24.11
2018-08-30T09:31:12.724Z,23.94
2018-08-30T09:33:40.501Z,23.58
2018-08-30T09:36:08.253Z,23.72
2018-08-30T09:38:36.022Z,24.02
2018-08-30T09:41:03.788Z,24.14
2018-08-30T09:43:31.503Z,24.12
2018-08-30T09:45:59.221Z,23.75
2018-08-30T09:48:26.974Z,23.34
2018-08-30T09:50:54.733Z,23.29
2018-08-30T09:53:22.478Z,23.69
2018-08-30T09:55:50.319Z,23.54
2018-08-30T09:58:18.000Z,23.56
2018-08-30T10:00:51.305Z,23.63
2018-08-30T10:03:19.100Z,23.59
2018-08-30T10:05:46.798Z,23.47
2018-08-30T10:08:14.535Z,23.41
2018-08-30T10:10:42.293Z,23.43
2018-08-30T10:13:10.000Z,23.52
2018-08-30T10:15:37.728Z,23.35
2018-08-30T10:18:05.758Z,23.28
2018-08-30T10:20:33.526Z,23.22
2018-08-30T10:23:01.227Z,23.53
2018-08-30T10:25:29.057Z,23.66
2018-08-30T10:27:56.736Z,23.47
2018-08-30T10:30:24.442Z,23.52
2018-08-30T10:32:52.231Z,23.62
2018-08-30T10:35:19.996Z,23.76
2018-08-30T10:37:47.721Z,23.70
2018-08-30T10:40:15.443Z,23.56
2018-08-30T10:42:43.232Z,23.72
2018-08-30T10:45:10.953Z,23.78
2018-08-30T10:47:38.721Z,23.78
2018-08-30T10:50:06.712Z,23.84
2018-08-30T10:52:34.468Z,23.84
2018-08-30T10:55:02.172Z,23.72
2018-08-30T10:57:29.914Z,23.93
2018-08-30T10:59:57.668Z,23.99
2018-08-30T11:02:25.581Z,23.52
2018-08-30T11:04:53.448Z,23.37
2018-08-30T11:07:21.328Z,23.47
2018-08-30T11:09:49.048Z,23.45
2018-08-30T11:12:16.848Z,23.59
2018-08-30T11:14:44.578Z,23.42
2018-08-30T11:19:39.425Z,22.89
2018-08-30T11:22:07.627Z,22.60
2018-08-30T11:24:35.379Z,22.66
2018-08-30T11:27:03.101Z,22.60
2018-08-30T11:29:30.843Z,22.51
2018-08-30T11:31:58.555Z,22.28
2018-08-30T11:34:26.347Z,22.22
2018-08-30T11:36:54.093Z,22.43
2018-08-30T11:39:21.807Z,22.44
2018-08-30T11:41:49.707Z,22.52
2018-08-30T11:44:17.340Z,22.52
2018-08-30T11:46:45.061Z,22.37
2018-08-30T11:49:12.808Z,22.15
2018-08-30T11:51:40.555Z,22.17
2018-08-30T11:54:08.297Z,22.32
2018-08-30T11:56:36.011Z,22.42
2018-08-30T11:59:03.759Z,22.63
2018-08-30T12:01:31.526Z,22.42
2018-08-30T12:03:59.341Z,22.41
2018-08-30T12:06:27.344Z,22.19
2018-08-30T12:08:55.444Z,22.16
2018-08-30T12:11:23.397Z,22.17
2018-08-30T12:13:51.110Z,22.10
2018-08-30T12:16:18.833Z,21.81
2018-08-30T12:18:46.662Z,21.71
2018-08-30T12:21:14.457Z,21.91
2018-08-30T12:23:42.204Z,21.85
2018-08-30T12:26:10.061Z,22.02
2018-08-30T12:28:38.324Z,21.90
2018-08-30T12:31:06.165Z,21.89
2018-08-30T12:33:34.297Z,22.05
2018-08-30T12:36:02.220Z,21.90
2018-08-30T12:38:29.822Z,21.72
2018-08-30T12:40:57.625Z,21.95
2018-08-30T12:43:25.529Z,22.00
2018-08-30T12:45:53.228Z,21.98
2018-08-30T12:48:20.972Z,21.72
2018-08-30T12:50:48.857Z,21.75
2018-08-30T12:53:16.568Z,21.72
2018-08-30T12:55:44.405Z,21.68
2018-08-30T12:58:12.271Z,21.60
2018-08-30T13:00:39.916Z,21.37
2018-08-30T13:03:07.665Z,21.38
2018-08-30T13:05:35.700Z,21.08
2018-08-30T13:08:03.303Z,20.92
2018-08-30T13:10:31.196Z,21.00
2018-08-30T13:12:58.952Z,21.01
2018-08-30T13:15:26.878Z,20.75
2018-08-30T13:17:54.306Z,20.56
2018-08-30T13:20:22.424Z,20.45
2018-08-30T13:22:50.260Z,20.40
2018-08-30T13:25:18.166Z,20.39
2018-08-30T13:27:45.670Z,20.32
2018-08-30T13:30:13.792Z,20.24
2018-08-30T13:32:41.456Z,20.24
2018-08-30T13:35:09.300Z,20.04
2018-08-30T13:37:36.931Z,19.85
2018-08-30T13:40:04.969Z,19.80
2018-08-30T13:42:32.750Z,19.72
2018-08-30T13:45:00.662Z,19.69
2018-08-30T13:47:28.170Z,19.57
2018-08-30T13:49:55.814Z,19.41
2018-08-30T13:52:23.952Z,19.28
2018-08-30T13:54:51.639Z,19.20
2018-08-30T13:57:19.659Z,19.13
2018-08-30T13:59:47.430Z,19.17
2018-08-30T14:02:15.044Z,19.07
2018-08-30T14:04:42.642Z,19.14
2018-08-30T14:07:10.393Z,19.17
2018-08-30T14:09:38.284Z,19.19
2018-08-30T14:12:06.097Z,19.16
2018-08-30T14:14:34.060Z,19.17
2018-08-30T14:17:01.461Z,19.05
2018-08-30T14:19:29.173Z,19.09
2018-08-30T14:21:56.960Z,19.04
2018-08-30T14:24:24.656Z,19.04
2018-08-30T14:26:52.497Z,19.01
2018-08-30T14:29:20.291Z,18.90
2018-08-30T14:31:47.995Z,18.87
2018-08-30T14:34:15.858Z,18.81
2018-08-30T14:36:43.562Z,18.83
2018-08-30T14:39:11.982Z,18.78
2018-08-30T14:41:40.211Z,18.80
2018-08-30T14:44:08.140Z,18.82
2018-08-30T14:46:35.827Z,18.68
2018-08-30T14:49:03.888Z,18.64
2018-08-30T14:51:31.828Z,18.62
2018-08-30T14:53:59.529Z,18.54
2018-08-30T14:56:27.288Z,18.51
2018-08-30T14:58:54.996Z,18.47
2018-08-30T15:01:23.073Z,18.53
2018-08-30T15:03:50.820Z,18.59
2018-08-30T15:06:18.588Z,18.53
2018-08-30T15:08:46.415Z,18.56
2018-08-30T15:11:14.095Z,18.47
2018-08-30T15:13:41.871Z,18.39
2018-08-30T15:16:10.055Z,18.23
2018-08-30T15:18:37.797Z,17.90
2018-08-30T15:21:05.584Z,17.72
2018-08-30T15:23:33.346Z,17.54
2018-08-30T15:26:01.072Z,17.24
2018-08-30T15:28:28.820Z,17.02
2018-08-30T15:30:56.614Z,16.81
2018-08-30T15:33:24.319Z,16.51
2018-08-30T15:35:52.315Z,16.32
2018-08-30T15:38:20.058Z,16.17
2018-08-30T15:40:47.813Z,15.95
2018-08-30T15:43:15.492Z,15.78
2018-08-30T15:45:43.217Z,15.54
2018-08-30T15:48:11.022Z,15.39
2018-08-30T15:50:38.816Z,15.32
2018-08-30T15:53:06.588Z,15.17
2018-08-30T15:55:34.349Z,15.12
2018-08-30T15:58:02.137Z,15.05
2018-08-30T16:00:29.886Z,14.93
2018-08-30T16:02:57.664Z,14.95
2018-08-30T16:05:25.441Z,14.91
2018-08-30T16:07:53.231Z,14.89
2018-08-30T16:10:21.004Z,14.95
2018-08-30T16:12:48.778Z,14.82
2018-08-30T16:15:16.552Z,14.70
2018-08-30T16:17:44.328Z,14.65
2018-08-30T16:20:12.203Z,14.60
2018-08-30T16:23:07.788Z,14.59
2018-08-30T16:25:35.925Z,14.59
2018-08-30T16:28:04.308Z,14.52
2018-08-30T16:30:32.125Z,14.42
2018-08-30T16:32:59.786Z,14.40
2018-08-30T16:35:27.804Z,14.40
2018-08-30T16:37:55.940Z,14.39
2018-08-30T16:40:23.639Z,14.31
2018-08-30T16:42:51.384Z,14.22
2018-08-30T16:45:19.159Z,14.24
2018-08-30T16:47:46.921Z,14.14
2018-08-30T16:50:14.619Z,14.10
2018-08-30T16:52:42.831Z,13.89
2018-08-30T16:55:10.528Z,13.86
2018-08-30T16:57:38.298Z,13.82
2018-08-30T17:00:06.112Z,13.83
2018-08-30T17:02:33.940Z,13.74
2018-08-30T17:05:01.649Z,13.67
2018-08-30T17:07:29.479Z,13.62
2018-08-30T17:09:57.180Z,13.49
2018-08-30T17:12:24.984Z,13.44
2018-08-30T17:14:52.783Z,13.35
2018-08-30T17:17:20.561Z,13.34
2018-08-30T17:19:48.321Z,13.26
2018-08-30T17:22:16.092Z,13.24
2018-08-30T17:24:43.792Z,13.19
2018-08-30T17:27:11.483Z,13.15
2018-08-30T17:29:39.185Z,13.14
2018-08-30T17:32:06.889Z,13.08
2018-08-30T17:34:34.824Z,13.03
2018-08-30T17:37:02.650Z,12.99
2018-08-30T17:39:30.396Z,12.97
2018-08-30T17:41:58.128Z,12.97
2018-08-30T17:44:25.821Z,12.95
2018-08-30T17:46:53.540Z,12.91
2018-08-30T17:49:21.260Z,12.88
2018-08-30T17:51:49.125Z,12.87
2018-08-30T17:54:16.790Z,12.84
2018-08-30T17:56:44.492Z,12.81
2018-08-30T17:59:12.252Z,12.79
2018-08-30T18:01:40.052Z,12.78
2018-08-30T18:04:07.761Z,12.73
2018-08-30T18:06:35.440Z,12.68
2018-08-30T18:09:03.479Z,12.62
2018-08-30T18:11:31.313Z,12.61
2018-08-30T18:13:58.888Z,12.61
2018-08-30T18:16:26.604Z,12.59
2018-08-30T18:18:54.295Z,12.60
2018-08-30T18:21:21.973Z,12.59
2018-08-30T18:23:49.820Z,12.58
2018-08-30T18:26:17.598Z,12.55
2018-08-30T18:28:45.288Z,12.53
2018-08-30T18:31:13.019Z,12.47
2018-08-30T18:33:40.708Z,12.46
2018-08-30T18:36:08.453Z,12.45
2018-08-30T18:38:36.254Z,12.43
2018-08-30T18:41:03.962Z,12.40
2018-08-30T18:43:31.776Z,12.34
2018-08-30T18:45:59.547Z,12.29
2018-08-30T18:48:27.232Z,12.27
2018-08-30T18:50:54.921Z,12.27
2018-08-30T18:53:22.712Z,12.26
2018-08-30T18:55:50.433Z,12.20
2018-08-30T18:58:18.164Z,12.15
2018-08-30T19:00:45.874Z,12.14
2018-08-30T19:03:13.657Z,12.10
2018-08-30T19:05:41.353Z,12.05
2018-08-30T19:08:09.062Z,12.03
2018-08-30T19:10:36.944Z,12.01
2018-08-30T19:13:04.657Z,11.96
2018-08-30T19:15:38.052Z,11.96
2018-08-30T19:18:11.249Z,11.94
2018-08-30T19:20:39.057Z,11.95
2018-08-30T19:23:06.715Z,11.93
2018-08-30T19:25:34.435Z,11.90
2018-08-30T19:28:02.115Z,11.86
2018-08-30T19:30:31.220Z,11.85
2018-08-30T19:33:00.444Z,11.84
2018-08-30T19:35:33.732Z,11.81
2018-08-30T19:38:01.484Z,11.79
2018-08-30T19:40:34.667Z,11.78
2018-08-30T19:43:02.367Z,11.76
2018-08-30T19:45:30.560Z,11.74
2018-08-30T19:47:58.744Z,11.72
2018-08-30T19:50:27.124Z,11.70
2018-08-30T19:52:54.847Z,11.68
2018-08-30T19:55:22.628Z,11.66
2018-08-30T19:57:50.324Z,11.61
2018-08-30T20:00:18.021Z,11.61
2018-08-30T20:02:45.764Z,11.61
2018-08-30T20:05:13.493Z,11.59
2018-08-30T20:07:41.323Z,11.57
2018-08-30T20:10:09.030Z,11.53
2018-08-30T20:12:36.761Z,11.49
2018-08-30T20:15:04.726Z,11.46
2018-08-30T20:17:32.417Z,11.43
2018-08-30T20:20:00.131Z,11.41
2018-08-30T20:22:27.932Z,11.39
2018-08-30T20:24:55.633Z,11.36
2018-08-30T20:27:23.312Z,11.29
2018-08-30T20:29:51.048Z,11.25
2018-08-30T20:32:18.740Z,11.18
2018-08-30T20:34:46.504Z,11.12
2018-08-30T20:37:14.222Z,11.11
2018-08-30T20:39:41.963Z,11.08
2018-08-30T20:42:09.656Z,11.06
2018-08-30T20:44:37.332Z,11.04
2018-08-30T20:47:05.093Z,11.02
2018-08-30T20:49:32.845Z,11.00
2018-08-30T20:52:00.544Z,10.97
2018-08-30T20:54:28.271Z,10.91
2018-08-30T20:56:56.048Z,10.90
2018-08-30T20:59:23.732Z,10.88
2018-08-30T21:01:51.498Z,10.87
2018-08-30T21:04:19.226Z,10.87
2018-08-30T21:06:46.947Z,10.84
2018-08-30T21:09:14.656Z,10.80
2018-08-30T21:11:42.386Z,10.79
2018-08-30T21:14:10.072Z,10.77
2018-08-30T21:16:37.803Z,10.74
2018-08-30T21:19:05.532Z,10.72
2018-08-30T21:21:33.255Z,10.66
2018-08-30T21:24:00.959Z,10.59
2018-08-30T21:26:28.672Z,10.56
2018-08-30T21:28:56.375Z,10.55
2018-08-30T21:31:24.119Z,10.53
2018-08-30T21:33:51.811Z,10.51
2018-08-30T21:36:19.496Z,10.50
2018-08-30T21:38:47.241Z,10.50
2018-08-30T21:41:14.933Z,10.49
2018-08-30T21:43:42.633Z,10.48
2018-08-30T21:46:10.515Z,10.47
2018-08-30T21:48:38.200Z,10.47
2018-08-30T21:51:05.931Z,10.48
2018-08-30T21:53:33.729Z,10.48
2018-08-30T21:56:01.688Z,10.47
2018-08-30T21:58:29.360Z,10.49
2018-08-30T22:00:57.127Z,10.50
2018-08-30T22:03:24.827Z,10.47
2018-08-30T22:05:52.578Z,10.47
2018-08-30T22:08:20.280Z,10.46
2018-08-30T22:10:47.990Z,10.44
2018-08-30T22:13:15.751Z,10.42
2018-08-30T22:15:43.433Z,10.38
2018-08-30T22:18:11.119Z,10.34
2018-08-30T22:20:38.818Z,10.29
2018-08-30T22:23:06.568Z,10.25
2018-08-30T22:25:34.312Z,10.22
2018-08-30T22:28:01.992Z,10.16
2018-08-30T22:30:29.687Z,10.13
2018-08-30T22:32:57.356Z,10.09
2018-08-30T22:35:25.040Z,10.04
2018-08-30T22:37:52.768Z,9.99
2018-08-30T22:40:20.479Z,9.95
2018-08-30T22:42:48.156Z,9.91
2018-08-30T22:45:15.861Z,9.84
2018-08-30T22:47:43.532Z,9.78
2018-08-30T22:50:11.224Z,9.71
2018-08-30T22:52:38.916Z,9.63
2018-08-30T22:55:06.671Z,9.56
2018-08-30T22:57:34.369Z,9.48
2018-08-30T23:00:02.080Z,9.44
2018-08-30T23:02:29.839Z,9.38
2018-08-30T23:04:57.511Z,9.31
2018-08-30T23:07:25.205Z,9.29
2018-08-30T23:09:52.955Z,9.25
2018-08-30T23:12:20.627Z,9.20
2018-08-30T23:14:48.314Z,9.18
2018-08-30T23:17:16.064Z,9.18
2018-08-30T23:19:43.844Z,9.15
2018-08-30T23:22:11.545Z,9.16
2018-08-30T23:24:39.232Z,9.15
2018-08-30T23:27:06.939Z,9.17
2018-08-30T23:29:34.637Z,9.18
2018-08-30T23:32:02.734Z,9.21
2018-08-30T23:34:30.609Z,9.24
2018-08-30T23:36:58.326Z,9.26
2018-08-30T23:39:25.999Z,9.29
2018-08-30T23:41:53.740Z,9.33
2018-08-30T23:44:21.417Z,9.37
2018-08-30T23:46:49.115Z,9.41
2018-08-30T23:49:16.804Z,9.45
2018-08-30T23:51:44.525Z,9.47
2018-08-30T23:54:12.218Z,9.52
2018-08-30T23:56:39.924Z,9.56
